Time;durP1;ratioP1;P1;durP2;ratioP2;P2;SDS_P1;SDS_P2;PMS_P1;PMS_P2;Temp;Humidity;BMP_temperature;BMP_pressure;BME280_temperature;BME280_humidity;BME280_pressure;Samples;Min_cycle;Max_cycle;Signal;HPM_P1;HPM_P2
2022/08/18 00:01:08;;;;;;;74.47;46.17;;;19.30;99.90;;;;;;5059449;28;20213;-81
2022/08/18 00:03:34;;;;;;;75.43;49.23;;;19.10;99.90;;;;;;5058815;28;20197;-81
2022/08/18 00:05:59;;;;;;;89.50;54.23;;;19.20;99.90;;;;;;5059374;28;20197;-81
2022/08/18 00:08:27;;;;;;;90.07;56.03;;;19.40;99.90;;;;;;5059895;28;20170;-81
2022/08/18 00:10:54;;;;;;;97.80;57.60;;;19.30;99.90;;;;;;5058777;28;20180;-82
2022/08/18 00:13:20;;;;;;;90.50;55.77;;;19.30;99.90;;;;;;5057901;28;20188;-82
2022/08/18 00:15:46;;;;;;;84.47;50.40;;;19.30;99.90;;;;;;5053916;28;20288;-81
2022/08/18 00:18:11;;;;;;;84.00;51.07;;;19.30;99.90;;;;;;5053783;28;20177;-81
2022/08/18 00:20:39;;;;;;;83.70;51.20;;;19.40;99.90;;;;;;5053583;28;20233;-81
2022/08/18 00:23:05;;;;;;;83.93;52.40;;;19.50;99.90;;;;;;5053836;28;20180;-81
2022/08/18 00:25:30;;;;;;;84.57;53.43;;;19.60;99.90;;;;;;5053535;28;20213;-81
2022/08/18 00:27:56;;;;;;;84.63;51.93;;;19.50;99.90;;;;;;5053357;28;20226;-81
2022/08/18 00:30:22;;;;;;;84.27;53.83;;;19.60;99.90;;;;;;5052361;28;20181;-80
2022/08/18 00:32:53;;;;;;;95.80;56.87;;;19.40;99.90;;;;;;5051801;28;20216;-80
2022/08/18 00:35:28;;;;;;;97.13;56.47;;;19.30;99.90;;;;;;5051780;28;20288;-81
2022/08/18 00:37:56;;;;;;;96.23;56.07;;;19.40;99.90;;;;;;5051913;28;20588;-81
2022/08/18 00:40:28;;;;;;;100.20;57.30;;;19.40;99.90;;;;;;5052020;28;20224;-81
2022/08/18 00:42:57;;;;;;;110.00;59.97;;;19.30;99.90;;;;;;5051918;28;20177;-81
2022/08/18 00:45:36;;;;;;;96.53;58.70;;;19.20;99.90;;;;;;5051634;28;20211;-81
2022/08/18 00:48:07;;;;;;;98.90;58.77;;;19.10;99.90;;;;;;5051481;28;20634;-81
2022/08/18 00:50:50;;;;;;;99.80;57.60;;;19.00;99.90;;;;;;5051471;28;20173;-81
2022/08/18 00:53:30;;;;;;;94.17;56.47;;;19.10;99.90;;;;;;5051554;28;20667;-81
2022/08/18 00:55:59;;;;;;;101.20;56.13;;;18.90;99.90;;;;;;5055414;28;20197;-81
2022/08/18 00:58:32;;;;;;;92.23;55.73;;;19.00;99.90;;;;;;5058462;28;20173;-81
2022/08/18 01:01:01;;;;;;;90.17;54.73;;;19.00;99.90;;;;;;5055962;28;20669;-81
2022/08/18 01:03:32;;;;;;;95.17;57.57;;;18.90;99.90;;;;;;5055920;28;20196;-81
2022/08/18 01:06:20;;;;;;;110.40;62.03;;;18.80;99.90;;;;;;5055196;28;20193;-81
2022/08/18 01:08:46;;;;;;;115.57;65.70;;;18.90;99.90;;;;;;5056222;28;20173;-80
2022/08/18 01:11:12;;;;;;;117.60;69.10;;;18.90;99.90;;;;;;5056913;28;20231;-81
2022/08/18 01:13:40;;;;;;;136.03;74.77;;;19.00;99.90;;;;;;5054944;28;20181;-80
2022/08/18 01:21:49;;;;;;;176.47;87.50;;;18.90;99.90;;;;;;5057901;28;20227;-80
2022/08/18 01:25:58;;;;;;;178.57;88.40;;;19.00;99.90;;;;;;5055863;28;20217;-80
2022/08/18 01:27:13;;;;;;;183.13;89.13;;;19.00;99.90;;;;;;5057454;28;20538;-81
2022/08/18 01:29:39;;;;;;;174.40;86.00;;;19.00;99.90;;;;;;5056242;28;20174;-81
2022/08/18 01:32:05;;;;;;;181.27;89.40;;;19.00;99.90;;;;;;5056701;28;20207;-81
2022/08/18 01:34:32;;;;;;;175.50;86.77;;;19.00;99.90;;;;;;5057878;28;20173;-81
2022/08/18 01:36:58;;;;;;;168.17;84.43;;;19.20;99.90;;;;;;5056812;28;20197;-80
2022/08/18 01:39:24;;;;;;;170.23;86.30;;;19.00;99.90;;;;;;5058113;28;20184;-81
2022/08/18 01:41:49;;;;;;;168.63;84.80;;;19.00;99.90;;;;;;5061455;28;20688;-81
2022/08/18 01:44:15;;;;;;;161.07;83.20;;;18.90;99.90;;;;;;5061779;28;20223;-81
2022/08/18 01:46:41;;;;;;;159.77;81.17;;;18.90;99.90;;;;;;5060975;28;20189;-80
2022/08/18 01:49:08;;;;;;;160.53;81.50;;;18.80;99.90;;;;;;5059733;28;20181;-81
2022/08/18 01:51:36;;;;;;;168.90;84.07;;;19.00;99.90;;;;;;5058818;28;20706;-81
2022/08/18 01:54:03;;;;;;;162.77;81.03;;;18.90;99.90;;;;;;5060041;28;20645;-81
2022/08/18 01:56:29;;;;;;;157.67;78.33;;;18.90;99.90;;;;;;5060086;28;20193;-80
2022/08/18 01:58:56;;;;;;;159.47;78.43;;;18.90;99.90;;;;;;5059131;28;20173;-81
2022/08/18 02:01:23;;;;;;;158.17;79.00;;;18.80;99.90;;;;;;5058968;28;20197;-81
2022/08/18 02:03:56;;;;;;;135.10;72.47;;;18.70;99.90;;;;;;5059506;28;20242;-81
2022/08/18 02:06:21;;;;;;;134.07;70.90;;;18.70;99.90;;;;;;5058981;28;20197;-80
2022/08/18 02:08:47;;;;;;;140.83;70.90;;;18.70;99.90;;;;;;5058179;28;20514;-81
2022/08/18 02:11:13;;;;;;;129.93;68.50;;;18.70;99.90;;;;;;5058524;28;20181;-81
2022/08/18 02:13:39;;;;;;;124.60;67.53;;;18.70;99.90;;;;;;5057903;28;20272;-81
2022/08/18 02:16:06;;;;;;;124.40;67.03;;;18.70;99.90;;;;;;5056116;28;20193;-81
2022/08/18 02:18:35;;;;;;;117.00;64.43;;;18.70;99.90;;;;;;5056737;28;20185;-81
2022/08/18 02:21:10;;;;;;;116.93;63.53;;;18.90;99.90;;;;;;5057838;28;20228;-81
2022/08/18 02:23:36;;;;;;;119.43;63.10;;;18.80;99.90;;;;;;5057165;28;20180;-81
2022/08/18 02:26:06;;;;;;;119.57;63.83;;;18.80;99.90;;;;;;5056695;28;20681;-81
2022/08/18 02:28:32;;;;;;;116.80;62.27;;;18.80;99.90;;;;;;5056604;28;20514;-81
2022/08/18 02:31:06;;;;;;;108.40;60.17;;;18.80;99.90;;;;;;5056662;28;20184;-81
2022/08/18 02:33:33;;;;;;;106.27;57.83;;;18.80;99.90;;;;;;5056597;28;20322;-81
2022/08/18 02:35:59;;;;;;;112.17;62.17;;;18.70;99.90;;;;;;5056183;28;20203;-81
2022/08/18 02:38:25;;;;;;;105.70;58.93;;;18.70;99.90;;;;;;5056563;28;20177;-81
2022/08/18 02:40:59;;;;;;;107.40;59.77;;;18.80;99.90;;;;;;5056836;28;20283;-82
2022/08/18 02:43:26;;;;;;;109.07;59.90;;;18.80;99.90;;;;;;5056117;28;20337;-81
2022/08/18 02:45:52;;;;;;;110.43;59.33;;;18.70;99.90;;;;;;5057811;28;20193;-81
2022/08/18 02:48:39;;;;;;;108.07;60.17;;;18.50;99.90;;;;;;5057088;28;20177;-81
2022/08/18 02:51:11;;;;;;;106.67;56.07;;;18.60;99.90;;;;;;5057816;28;20196;-81
2022/08/18 02:53:38;;;;;;;104.37;57.70;;;18.70;99.90;;;;;;5057596;28;20178;-81
2022/08/18 02:56:24;;;;;;;104.00;56.57;;;18.70;99.90;;;;;;5057395;28;20197;-81
2022/08/18 02:58:53;;;;;;;102.97;56.17;;;18.70;99.90;;;;;;5058286;28;20181;-81
2022/08/18 03:01:20;;;;;;;101.17;57.67;;;18.70;99.90;;;;;;5058497;28;20201;-81
2022/08/18 03:03:47;;;;;;;94.87;53.67;;;18.70;99.90;;;;;;5056725;28;20231;-81
2022/08/18 03:06:12;;;;;;;100.73;56.77;;;18.80;99.90;;;;;;5058015;28;20193;-81
2022/08/18 03:08:38;;;;;;;98.43;54.57;;;18.70;99.90;;;;;;5057293;28;20217;-81
2022/08/18 03:11:04;;;;;;;96.00;56.07;;;18.70;99.90;;;;;;5058674;28;20181;-81
2022/08/18 03:13:29;;;;;;;97.27;54.60;;;18.80;99.90;;;;;;5057512;28;20346;-81
2022/08/18 03:15:55;;;;;;;91.27;53.83;;;18.80;99.90;;;;;;5057282;28;20538;-81
2022/08/18 03:18:24;;;;;;;96.23;53.57;;;18.80;99.90;;;;;;5057471;28;20622;-81
2022/08/18 03:20:50;;;;;;;91.60;53.83;;;18.70;99.90;;;;;;5058175;28;20202;-81
2022/08/18 03:23:17;;;;;;;96.40;56.30;;;18.80;99.90;;;;;;5058006;28;20200;-81
2022/08/18 03:25:45;;;;;;;96.70;54.27;;;18.90;99.90;;;;;;5058011;28;20316;-81
2022/08/18 03:28:11;;;;;;;94.33;53.87;;;18.80;99.90;;;;;;5057894;28;20195;-81
2022/08/18 03:30:37;;;;;;;95.87;54.03;;;18.80;99.90;;;;;;5057376;28;20182;-81
2022/08/18 03:33:02;;;;;;;100.97;54.17;;;18.90;99.90;;;;;;5058154;28;20177;-81
2022/08/18 03:35:29;;;;;;;98.03;55.00;;;18.80;99.90;;;;;;5057970;28;20208;-81
2022/08/18 03:37:58;;;;;;;105.37;57.23;;;18.80;99.90;;;;;;5058511;28;20201;-81
2022/08/18 03:40:23;;;;;;;104.53;56.73;;;18.80;99.90;;;;;;5056970;28;20255;-81
2022/08/18 03:42:49;;;;;;;100.37;56.00;;;18.80;99.90;;;;;;5057984;28;20170;-81
2022/08/18 03:45:14;;;;;;;106.77;59.73;;;19.00;99.90;;;;;;5058341;28;20185;-81
2022/08/18 03:47:40;;;;;;;100.57;56.07;;;18.90;99.90;;;;;;5058960;28;20231;-81
2022/08/18 03:50:06;;;;;;;110.83;58.87;;;18.80;99.90;;;;;;5059304;28;20264;-81
2022/08/18 03:52:32;;;;;;;116.17;62.67;;;18.70;99.90;;;;;;5058284;28;20181;-81
2022/08/18 03:54:58;;;;;;;129.83;65.37;;;18.70;99.90;;;;;;5057397;28;20177;-82
2022/08/18 03:57:24;;;;;;;128.40;65.00;;;18.60;99.90;;;;;;5058991;28;20184;-81
2022/08/18 03:59:50;;;;;;;131.77;66.70;;;18.70;99.90;;;;;;5058242;28;20173;-81
2022/08/18 04:02:16;;;;;;;129.00;66.47;;;18.70;99.90;;;;;;5057595;28;20689;-81
2022/08/18 04:04:42;;;;;;;125.20;63.70;;;18.70;99.90;;;;;;5057552;28;20264;-81
2022/08/18 04:07:10;;;;;;;124.93;63.83;;;18.80;99.90;;;;;;5056689;28;20221;-81
2022/08/18 04:09:37;;;;;;;122.60;64.27;;;18.80;99.90;;;;;;5056809;28;20169;-81
2022/08/18 04:12:11;;;;;;;121.40;63.00;;;18.80;99.90;;;;;;5057127;28;20208;-81
2022/08/18 04:14:38;;;;;;;120.77;63.63;;;18.70;99.90;;;;;;5056214;28;20184;-81
2022/08/18 04:17:04;;;;;;;130.27;65.40;;;18.70;99.90;;;;;;5053955;28;20197;-81
2022/08/18 04:19:33;;;;;;;128.87;65.37;;;18.80;99.90;;;;;;5053874;28;20176;-81
2022/08/18 04:21:59;;;;;;;119.63;61.77;;;18.70;99.90;;;;;;5055120;28;20210;-80
2022/08/18 04:24:27;;;;;;;130.57;66.33;;;18.80;99.90;;;;;;5053992;28;20658;-81
2022/08/18 04:26:55;;;;;;;123.37;64.13;;;18.90;99.90;;;;;;5053482;28;20255;-81
2022/08/18 04:29:20;;;;;;;126.30;64.03;;;18.90;99.90;;;;;;5054049;28;20170;-81
2022/08/18 04:31:46;;;;;;;125.07;64.37;;;18.90;99.90;;;;;;5053815;28;20177;-81
2022/08/18 04:34:13;;;;;;;132.47;65.43;;;18.90;99.90;;;;;;5053038;28;20198;-81
2022/08/18 04:36:39;;;;;;;131.23;64.97;;;18.80;99.90;;;;;;5053318;28;20197;-81
2022/08/18 04:39:08;;;;;;;126.10;63.23;;;18.90;99.90;;;;;;5052191;28;20196;-81
2022/08/18 04:41:34;;;;;;;130.57;63.97;;;18.90;99.90;;;;;;5053777;28;20193;-81
2022/08/18 04:44:02;;;;;;;125.73;63.60;;;19.00;99.90;;;;;;5051916;28;20204;-81
2022/08/18 04:46:29;;;;;;;132.37;65.43;;;18.90;99.90;;;;;;5053792;28;20750;-81
2022/08/18 04:49:00;;;;;;;125.73;66.33;;;18.90;99.90;;;;;;5052295;28;20530;-81
2022/08/18 04:51:28;;;;;;;117.47;61.17;;;18.90;99.90;;;;;;5055020;28;20166;-81
2022/08/18 04:53:55;;;;;;;136.83;66.73;;;19.00;99.90;;;;;;5053459;28;20177;-81
2022/08/18 04:56:25;;;;;;;128.80;65.40;;;19.00;99.90;;;;;;5052948;28;20196;-81
2022/08/18 04:59:05;;;;;;;128.17;63.93;;;18.90;99.90;;;;;;5051870;28;20172;-81
2022/08/18 05:01:36;;;;;;;120.27;63.10;;;18.90;99.90;;;;;;5054766;28;20205;-81
2022/08/18 05:04:03;;;;;;;137.40;67.67;;;19.00;99.90;;;;;;5052106;28;20255;-81
2022/08/18 05:06:29;;;;;;;135.83;68.87;;;18.80;99.90;;;;;;5051627;28;20232;-81
2022/08/18 05:08:57;;;;;;;141.33;68.93;;;18.80;99.90;;;;;;5053161;28;20544;-81
2022/08/18 05:11:27;;;;;;;140.43;69.20;;;18.80;99.90;;;;;;5053747;28;20177;-81
2022/08/18 05:13:56;;;;;;;149.50;71.33;;;18.80;99.90;;;;;;5053300;28;20173;-80
2022/08/18 05:16:23;;;;;;;144.37;69.37;;;18.80;99.90;;;;;;5056370;28;20288;-80
2022/08/18 05:18:49;;;;;;;145.83;70.20;;;18.80;99.90;;;;;;5056044;28;20173;-82
2022/08/18 05:21:15;;;;;;;154.33;73.13;;;18.90;99.90;;;;;;5056335;28;20216;-80
2022/08/18 05:23:42;;;;;;;153.93;75.63;;;18.90;99.90;;;;;;5054692;28;20638;-81
2022/08/18 05:26:09;;;;;;;154.83;69.97;;;18.90;99.90;;;;;;5054840;28;20185;-81
2022/08/18 05:28:36;;;;;;;150.70;71.50;;;18.90;99.90;;;;;;5055126;28;20173;-81
2022/08/18 05:31:18;;;;;;;157.30;74.00;;;19.00;99.90;;;;;;5054911;28;20177;-81
2022/08/18 05:33:45;;;;;;;162.53;74.87;;;19.00;99.90;;;;;;5054948;28;20672;-82
2022/08/18 05:36:14;;;;;;;160.03;73.50;;;18.90;99.90;;;;;;5056531;28;20205;-82
2022/08/18 05:38:41;;;;;;;154.97;72.47;;;18.90;99.90;;;;;;5058237;28;20208;-81
2022/08/18 05:41:08;;;;;;;154.37;73.37;;;19.00;99.90;;;;;;5057132;28;20263;-81
2022/08/18 05:43:36;;;;;;;155.23;73.00;;;19.10;99.90;;;;;;5055258;28;20174;-80
2022/08/18 05:46:05;;;;;;;155.60;74.60;;;19.10;99.90;;;;;;5052210;28;20291;-81
2022/08/18 05:48:31;;;;;;;155.80;73.27;;;19.00;99.90;;;;;;5051730;28;20176;-80
2022/08/18 05:50:59;;;;;;;162.30;74.10;;;19.10;99.90;;;;;;5051691;28;20707;-80
2022/08/18 05:56:45;;;;;;;147.67;69.33;;;19.10;99.90;;;;;;5051733;28;20188;-80
2022/08/18 05:58:58;;;;;;;150.47;71.83;;;19.10;99.90;;;;;;5053087;28;20188;-80
2022/08/18 06:01:37;;;;;;;157.97;71.27;;;19.20;99.90;;;;;;5051803;28;20209;-80
2022/08/18 06:04:22;;;;;;;145.73;68.43;;;19.20;99.90;;;;;;5053235;28;20637;-80
2022/08/18 06:06:49;;;;;;;151.33;69.63;;;19.20;99.90;;;;;;5051710;28;20193;-80
2022/08/18 06:09:33;;;;;;;152.90;70.63;;;19.10;99.90;;;;;;5051897;28;20178;-81
2022/08/18 06:12:15;;;;;;;153.37;71.30;;;19.00;99.90;;;;;;5052388;28;20243;-80
2022/08/18 06:14:41;;;;;;;147.43;69.83;;;19.20;99.90;;;;;;5051371;28;20178;-81
2022/08/18 06:17:36;;;;;;;160.87;72.90;;;19.20;99.90;;;;;;5050067;28;20201;-80
2022/08/18 06:20:13;;;;;;;170.97;75.37;;;19.20;99.90;;;;;;5013468;28;20288;-81
2022/08/18 06:22:49;;;;;;;161.63;73.13;;;19.20;99.90;;;;;;5051002;28;20227;-81
2022/08/18 06:25:54;;;;;;;173.53;75.73;;;19.30;99.90;;;;;;5050374;28;20765;-80
2022/08/18 06:28:20;;;;;;;154.03;71.33;;;19.20;99.90;;;;;;5050635;28;20189;-81
2022/08/18 06:30:59;;;;;;;160.77;72.53;;;19.30;99.90;;;;;;5054244;28;20637;-80
2022/08/18 06:33:49;;;;;;;167.47;74.80;;;19.30;99.90;;;;;;5053429;28;20272;-80
2022/08/18 06:36:17;;;;;;;162.37;72.33;;;19.30;99.90;;;;;;5053882;28;20204;-80
2022/08/18 06:38:55;;;;;;;157.73;72.47;;;19.30;99.90;;;;;;5053796;28;20178;-80
2022/08/18 06:41:32;;;;;;;157.60;73.00;;;19.40;99.90;;;;;;5053822;28;20266;-80
2022/08/18 06:44:03;;;;;;;154.73;72.27;;;19.30;99.90;;;;;;5053746;28;20181;-79
2022/08/18 06:47:03;;;;;;;154.47;71.27;;;19.30;99.90;;;;;;5055137;28;20202;-80
2022/08/18 06:49:35;;;;;;;159.37;71.27;;;19.30;99.90;;;;;;5056159;28;20263;-79
2022/08/18 06:52:32;;;;;;;151.40;70.47;;;19.30;99.90;;;;;;5054133;28;20177;-79
2022/08/18 06:55:03;;;;;;;165.73;72.77;;;19.30;99.90;;;;;;5054349;28;20323;-79
2022/08/18 06:57:33;;;;;;;155.87;71.50;;;19.20;99.90;;;;;;5055012;28;20656;-79
2022/08/18 07:00:17;;;;;;;149.13;69.97;;;19.30;99.90;;;;;;5056124;28;20180;-79
2022/08/18 07:02:54;;;;;;;158.60;70.33;;;19.40;99.90;;;;;;5054522;28;20687;-78
2022/08/18 07:05:23;;;;;;;151.97;68.43;;;19.50;99.90;;;;;;5054314;28;20189;-79
2022/08/18 07:08:09;;;;;;;145.60;66.87;;;19.60;99.90;;;;;;5054394;28;20165;-79
2022/08/18 07:10:38;;;;;;;142.80;64.23;;;19.50;99.90;;;;;;5055929;28;20544;-78
2022/08/18 07:13:25;;;;;;;143.10;67.43;;;19.70;99.90;;;;;;5055330;28;20181;-78
2022/08/18 07:15:54;;;;;;;140.07;64.83;;;19.70;99.90;;;;;;5054984;28;20194;-78
2022/08/18 07:18:28;;;;;;;137.70;66.03;;;19.70;99.90;;;;;;5055487;28;20226;-78
2022/08/18 07:21:00;;;;;;;126.67;62.30;;;19.70;99.90;;;;;;5054522;28;20789;-78
2022/08/18 07:23:26;;;;;;;127.57;62.17;;;19.80;99.90;;;;;;5054773;28;20226;-79
2022/08/18 07:26:09;;;;;;;122.80;60.30;;;19.90;99.90;;;;;;5057463;28;20201;-80
2022/08/18 07:28:43;;;;;;;130.17;61.47;;;19.80;99.90;;;;;;5055575;28;20653;-80
2022/08/18 07:31:42;;;;;;;120.43;60.40;;;19.80;99.90;;;;;;5055053;28;20568;-79
2022/08/18 07:34:14;;;;;;;119.10;59.60;;;19.80;99.90;;;;;;5054824;28;20642;-79
2022/08/18 07:37:02;;;;;;;119.20;57.80;;;19.90;99.90;;;;;;5054795;28;20189;-80
2022/08/18 07:39:28;;;;;;;112.33;56.23;;;19.90;99.90;;;;;;5057059;28;20646;-79
2022/08/18 07:42:09;;;;;;;126.93;58.37;;;19.90;99.90;;;;;;5058125;28;20201;-79
2022/08/18 07:44:54;;;;;;;116.50;58.20;;;20.00;99.90;;;;;;5059844;28;20642;-80
2022/08/18 07:47:30;;;;;;;120.43;56.80;;;20.00;99.90;;;;;;5058250;28;20173;-79
2022/08/18 07:49:57;;;;;;;114.37;57.27;;;20.00;99.90;;;;;;5058007;28;20196;-79
2022/08/18 07:52:59;;;;;;;113.57;56.67;;;20.00;99.90;;;;;;5058798;28;20166;-79
2022/08/18 07:55:31;;;;;;;104.17;54.90;;;20.00;99.90;;;;;;5055488;28;20215;-79
2022/08/18 07:58:15;;;;;;;117.43;58.40;;;20.10;99.90;;;;;;5055743;28;20247;-79
2022/08/18 08:00:46;;;;;;;111.53;56.23;;;20.00;99.90;;;;;;5056964;28;20268;-79
2022/08/18 08:03:47;;;;;;;107.13;55.13;;;20.10;99.90;;;;;;5044569;28;20182;-78
2022/08/18 08:06:23;;;;;;;100.37;53.60;;;20.10;99.90;;;;;;5045935;28;20223;-79
2022/08/18 08:08:55;;;;;;;102.03;53.87;;;20.00;99.90;;;;;;5055186;28;20169;-79
2022/08/18 08:11:32;;;;;;;106.87;54.87;;;20.10;99.90;;;;;;5053278;28;20181;-79
2022/08/18 08:14:16;;;;;;;107.93;54.50;;;20.20;99.90;;;;;;5054579;28;20169;-82
2022/08/18 08:16:47;;;;;;;106.57;53.50;;;20.30;99.90;;;;;;5055853;28;20258;-80
2022/08/18 08:19:35;;;;;;;102.47;53.17;;;20.40;99.90;;;;;;5053695;28;20184;-80
2022/08/18 08:22:15;;;;;;;94.97;51.30;;;20.40;99.90;;;;;;5053999;28;20565;-80
2022/08/18 08:24:47;;;;;;;96.33;50.33;;;20.40;99.90;;;;;;5053638;28;20199;-79
2022/08/18 08:27:30;;;;;;;94.03;49.77;;;20.50;99.90;;;;;;5053406;28;20642;-80
2022/08/18 08:30:11;;;;;;;84.60;47.83;;;20.50;99.90;;;;;;5053889;28;20165;-79
2022/08/18 08:32:52;;;;;;;85.13;46.60;;;20.60;99.90;;;;;;5052615;28;20256;-79
2022/08/18 08:35:30;;;;;;;83.53;46.92;;;20.50;99.90;;;;;;5053438;28;20200;-79
2022/08/18 08:38:01;;;;;;;82.40;47.70;;;20.50;99.90;;;;;;5053840;28;20176;-79
2022/08/18 08:40:37;;;;;;;78.35;44.60;;;20.60;99.90;;;;;;5053950;28;20231;-79
2022/08/18 08:43:08;;;;;;;66.78;40.92;;;20.80;99.90;;;;;;5052996;28;20248;-79
2022/08/18 08:45:44;;;;;;;63.38;36.30;;;21.00;99.90;;;;;;5053252;28;20307;-79
2022/08/18 08:48:23;;;;;;;61.70;36.33;;;21.10;99.90;;;;;;5050621;28;20523;-78
2022/08/18 08:51:09;;;;;;;41.35;27.27;;;21.40;99.90;;;;;;5051033;28;20199;-80
2022/08/18 08:53:53;;;;;;;38.50;26.33;;;21.50;99.90;;;;;;5050423;28;20211;-79
2022/08/18 08:56:30;;;;;;;36.85;25.02;;;21.50;99.90;;;;;;5050411;28;20205;-79
2022/08/18 08:59:17;;;;;;;33.20;22.77;;;21.40;99.90;;;;;;5050782;28;20226;-80
2022/08/18 09:01:58;;;;;;;35.25;23.40;;;21.30;99.90;;;;;;5050354;28;20232;-80
2022/08/18 09:04:50;;;;;;;32.38;22.98;;;21.50;99.90;;;;;;5050829;28;20264;-79
2022/08/18 09:07:19;;;;;;;30.13;22.42;;;21.50;99.90;;;;;;5053453;28;20200;-79
2022/08/18 09:09:57;;;;;;;34.10;22.90;;;21.60;99.90;;;;;;5051648;28;20165;-78
2022/08/18 09:13:06;;;;;;;33.58;22.65;;;21.80;99.90;;;;;;5050274;28;20169;-79
2022/08/18 09:15:56;;;;;;;30.38;20.83;;;22.00;99.90;;;;;;5000210;28;20229;-78
2022/08/18 09:18:27;;;;;;;29.85;20.90;;;22.30;99.90;;;;;;5053352;28;20563;-79
2022/08/18 09:21:10;;;;;;;32.30;19.83;;;22.60;99.90;;;;;;5052887;28;20220;-80
2022/08/18 09:23:45;;;;;;;32.05;21.30;;;22.90;99.90;;;;;;5054192;28;20234;-79
2022/08/18 09:26:34;;;;;;;31.23;20.83;;;22.80;99.90;;;;;;5055461;28;20771;-79
2022/08/18 09:29:15;;;;;;;30.73;21.25;;;22.60;99.90;;;;;;5054474;28;20180;-79
2022/08/18 09:31:43;;;;;;;31.20;19.73;;;22.30;99.90;;;;;;5055498;28;20243;-78
2022/08/18 09:34:21;;;;;;;29.65;20.02;;;22.40;99.90;;;;;;5055545;28;20220;-78
2022/08/18 09:37:03;;;;;;;26.05;18.20;;;22.50;99.90;;;;;;5055090;28;20270;-78
2022/08/18 09:43:17;;;;;;;26.83;17.85;;;22.80;99.90;;;;;;5025894;28;20561;-78
2022/08/18 09:45:46;;;;;;;24.33;18.90;;;23.00;99.90;;;;;;4992286;28;20601;-77
2022/08/18 09:48:11;;;;;;;25.33;18.50;;;22.90;99.90;;;;;;5054715;28;20185;-77
2022/08/18 09:50:55;;;;;;;24.08;19.25;;;22.90;99.90;;;;;;5054078;28;20191;-77
2022/08/18 09:53:45;;;;;;;24.95;18.25;;;23.00;99.90;;;;;;5053031;28;20177;-77
2022/08/18 09:56:13;;;;;;;22.52;16.38;;;22.90;99.90;;;;;;5053524;28;20554;-77
2022/08/18 09:58:57;;;;;;;25.40;18.38;;;22.90;99.90;;;;;;5052935;28;20576;-78
2022/08/18 10:01:30;;;;;;;21.40;16.95;;;22.80;99.90;;;;;;5054650;28;20232;-77
2022/08/18 10:04:15;;;;;;;22.02;16.45;;;22.60;99.90;;;;;;5057981;28;20223;-77
2022/08/18 10:06:45;;;;;;;22.92;16.65;;;22.70;99.90;;;;;;5055144;28;20578;-77
2022/08/18 10:09:31;;;;;;;22.17;16.60;;;22.50;99.90;;;;;;5058123;28;20177;-77
2022/08/18 10:12:34;;;;;;;21.63;16.67;;;22.60;99.90;;;;;;5042681;28;20181;-78
2022/08/18 10:15:21;;;;;;;25.33;16.45;;;22.20;99.90;;;;;;5058064;28;20691;-78
2022/08/18 10:18:13;;;;;;;22.65;16.83;;;22.20;99.90;;;;;;5054315;28;20203;-77
2022/08/18 10:21:07;;;;;;;28.85;17.50;;;22.40;99.90;;;;;;5054406;28;20701;-77
2022/08/18 10:23:45;;;;;;;25.33;18.75;;;22.40;99.90;;;;;;5053371;28;20177;-77
2022/08/18 10:26:29;;;;;;;24.23;18.17;;;22.30;99.90;;;;;;5054336;28;20192;-77
2022/08/18 10:29:20;;;;;;;25.13;17.23;;;22.20;99.90;;;;;;5054441;28;20177;-78
2022/08/18 10:31:55;;;;;;;21.33;15.73;;;22.40;99.90;;;;;;5053505;28;20177;-78
2022/08/18 10:34:36;;;;;;;18.25;14.25;;;22.70;99.90;;;;;;5052645;28;20173;-77
2022/08/18 10:37:10;;;;;;;24.33;16.20;;;23.10;99.90;;;;;;5054506;28;20197;-78
2022/08/18 10:39:39;;;;;;;18.45;14.43;;;23.00;99.90;;;;;;5054407;28;20782;-78
2022/08/18 10:42:35;;;;;;;21.52;14.25;;;23.20;99.90;;;;;;5054324;28;20205;-78
2022/08/18 10:45:19;;;;;;;18.08;14.25;;;23.10;99.90;;;;;;5053689;28;20173;-77
2022/08/18 10:48:15;;;;;;;20.17;14.15;;;23.00;99.90;;;;;;5051707;28;20165;-79
2022/08/18 10:50:58;;;;;;;20.48;13.75;;;23.00;99.90;;;;;;5053172;28;20660;-78
2022/08/18 10:53:33;;;;;;;20.33;13.73;;;23.00;99.90;;;;;;5053071;28;20204;-77
2022/08/18 10:56:10;;;;;;;17.98;13.48;;;22.70;99.90;;;;;;5052877;28;20231;-77
2022/08/18 10:58:41;;;;;;;17.52;13.27;;;22.70;99.90;;;;;;5052318;28;20177;-77
2022/08/18 11:01:45;;;;;;;19.10;13.13;;;22.80;99.90;;;;;;5051911;28;20197;-77
2022/08/18 11:04:41;;;;;;;17.20;12.30;;;22.80;99.90;;;;;;5054000;28;20187;-77
2022/08/18 11:07:21;;;;;;;18.33;12.75;;;23.10;99.90;;;;;;5043851;28;20407;-82
2022/08/18 11:09:50;;;;;;;16.55;12.02;;;23.30;99.90;;;;;;5054954;28;20566;-81
2022/08/18 11:12:51;;;;;;;16.00;12.93;;;23.40;99.90;;;;;;5057103;28;20174;-82
2022/08/18 11:15:54;;;;;;;14.23;11.57;;;23.40;99.90;;;;;;5054780;28;20563;-82
2022/08/18 11:18:31;;;;;;;13.32;10.95;;;23.30;99.90;;;;;;5029706;28;20269;-82
2022/08/18 11:21:35;;;;;;;16.45;11.80;;;23.20;99.90;;;;;;5056017;28;20211;-83
2022/08/18 11:24:13;;;;;;;20.45;13.02;;;23.10;99.90;;;;;;4978596;28;20229;-82
2022/08/18 11:26:48;;;;;;;16.00;12.48;;;23.10;99.90;;;;;;4996045;28;20190;-82
2022/08/18 11:29:27;;;;;;;17.50;12.63;;;23.00;99.90;;;;;;5025396;28;20181;-84
2022/08/18 11:32:05;;;;;;;13.13;11.25;;;23.10;99.90;;;;;;5055188;28;20188;-82
2022/08/18 11:34:35;;;;;;;11.57;10.32;;;23.30;99.90;;;;;;5055041;28;20181;-83
2022/08/18 11:37:04;;;;;;;15.70;11.95;;;23.20;99.90;;;;;;5054964;28;20189;-83
2022/08/18 11:39:41;;;;;;;14.40;11.63;;;23.40;99.90;;;;;;5056050;28;20260;-82
2022/08/18 11:42:09;;;;;;;14.93;12.25;;;23.50;99.90;;;;;;5055226;28;20342;-82
2022/08/18 11:44:37;;;;;;;41.92;13.65;;;23.60;99.90;;;;;;5054741;28;20174;-83
2022/08/18 11:47:19;;;;;;;23.45;14.02;;;23.80;99.90;;;;;;5053079;28;20193;-83
2022/08/18 11:49:55;;;;;;;16.70;11.73;;;23.60;99.90;;;;;;5055045;28;20165;-82
2022/08/18 11:52:28;;;;;;;18.98;12.38;;;23.60;99.90;;;;;;5053955;28;20263;-83
2022/08/18 11:55:03;;;;;;;35.08;13.18;;;23.50;99.90;;;;;;5054454;28;20173;-83
2022/08/18 11:57:53;;;;;;;21.50;11.55;;;23.60;99.90;;;;;;5055160;28;20181;-83
2022/08/18 12:00:38;;;;;;;15.88;11.50;;;24.00;99.90;;;;;;5054638;28;20193;-83
2022/08/18 12:03:35;;;;;;;12.93;11.38;;;23.90;99.90;;;;;;5054440;28;20222;-83
2022/08/18 12:06:18;;;;;;;14.40;10.52;;;24.00;99.90;;;;;;5053445;28;20280;-82
2022/08/18 12:09:05;;;;;;;16.23;11.25;;;24.50;99.90;;;;;;5055131;28;20176;-82
2022/08/18 12:11:34;;;;;;;15.60;11.00;;;24.80;99.90;;;;;;5055224;28;20513;-83
2022/08/18 12:14:09;;;;;;;14.30;11.68;;;25.60;99.90;;;;;;5055061;28;20200;-83
2022/08/18 12:16:41;;;;;;;16.67;9.85;;;25.50;99.90;;;;;;5054731;28;20204;-83
2022/08/18 12:19:10;;;;;;;13.65;8.75;;;25.50;99.90;;;;;;5054107;28;20177;-82
2022/08/18 12:21:55;;;;;;;13.40;9.57;;;25.50;99.90;;;;;;5054396;28;20291;-82
2022/08/18 12:24:23;;;;;;;13.57;9.82;;;25.70;99.90;;;;;;5053433;28;20189;-83
2022/08/18 12:26:49;;;;;;;10.70;9.45;;;25.30;99.90;;;;;;5054393;28;20214;-83
2022/08/18 12:29:16;;;;;;;15.10;10.57;;;25.30;99.90;;;;;;5054200;28;20173;-83
2022/08/18 12:31:46;;;;;;;61.80;11.20;;;24.90;99.90;;;;;;5053617;28;20185;-83
2022/08/18 12:34:12;;;;;;;11.25;9.23;;;25.10;99.90;;;;;;5053181;28;20177;-83
2022/08/18 12:36:39;;;;;;;14.55;9.93;;;24.80;99.90;;;;;;5054276;28;20342;-82
2022/08/18 12:39:05;;;;;;;13.43;9.18;;;25.00;99.90;;;;;;5054315;28;20652;-82
2022/08/18 12:41:31;;;;;;;14.02;8.93;;;24.90;99.90;;;;;;5053470;28;20215;-83
2022/08/18 12:43:56;;;;;;;10.35;8.93;;;24.70;99.90;;;;;;5053452;28;20264;-82
2022/08/18 12:46:22;;;;;;;13.50;8.50;;;24.90;99.90;;;;;;5053799;28;20217;-82
2022/08/18 12:48:49;;;;;;;11.45;8.75;;;25.00;99.90;;;;;;5052654;28;20169;-82
2022/08/18 12:51:15;;;;;;;10.13;7.97;;;24.90;99.90;;;;;;5050958;28;20179;-82
2022/08/18 12:53:40;;;;;;;11.15;7.88;;;24.70;99.90;;;;;;5051693;28;20526;-82
2022/08/18 12:56:21;;;;;;;10.60;5.97;;;24.80;99.90;;;;;;5051352;28;20557;-82
2022/08/18 12:58:48;;;;;;;6.30;5.38;;;24.70;99.90;;;;;;5052949;28;20545;-83
2022/08/18 13:01:18;;;;;;;8.60;6.32;;;24.70;99.90;;;;;;5051024;28;20193;-83
2022/08/18 13:03:47;;;;;;;8.77;7.03;;;24.80;99.90;;;;;;5051432;28;20205;-83
2022/08/18 13:06:14;;;;;;;8.35;7.10;;;24.90;99.90;;;;;;5051506;28;20272;-82
2022/08/18 13:08:40;;;;;;;8.55;6.28;;;24.60;99.90;;;;;;5051263;28;20181;-82